createdAt,value
2018-10-17T08:37:33.956Z,12.00
2018-10-17T08:38:33.493Z,12.50
2018-10-17T08:39:33.498Z,12.20
2018-10-17T08:40:33.433Z,12.20
2018-10-17T08:41:33.387Z,12.80
2018-10-17T08:42:33.336Z,12.60
2018-10-17T08:43:33.284Z,12.20
2018-10-17T08:44:33.247Z,11.90
2018-10-17T08:45:33.164Z,11.50
2018-10-17T08:46:33.094Z,11.90
2018-10-17T08:47:33.031Z,11.10
2018-10-17T08:48:32.965Z,12.00
2018-10-17T08:49:32.925Z,9.80
2018-10-17T08:50:32.879Z,10.10
2018-10-17T08:51:32.752Z,11.10
2018-10-17T08:52:32.680Z,10.40
2018-10-17T08:53:32.622Z,10.80
2018-10-17T08:54:32.561Z,10.20
2018-10-17T08:55:32.462Z,10.10
2018-10-17T08:56:32.391Z,11.20
2018-10-17T08:57:32.359Z,11.80
2018-10-17T08:58:32.246Z,11.80
2018-10-17T08:59:32.214Z,11.80
2018-10-17T09:00:32.115Z,11.30
2018-10-17T09:01:32.049Z,11.10
2018-10-17T09:02:31.975Z,11.00
2018-10-17T09:03:31.896Z,10.90
2018-10-17T09:04:31.819Z,11.20
2018-10-17T09:05:31.772Z,11.00
2018-10-17T09:06:31.674Z,10.80
2018-10-17T09:07:31.626Z,11.30
2018-10-17T09:08:31.524Z,11.50
2018-10-17T09:09:31.446Z,11.00
2018-10-17T09:10:31.419Z,11.00
2018-10-17T09:11:31.297Z,11.10
2018-10-17T09:12:31.226Z,9.90
2018-10-17T09:13:31.278Z,10.80
2018-10-17T09:14:31.063Z,10.00
2018-10-17T09:15:31.008Z,9.80
2018-10-17T09:16:30.990Z,9.80
2018-10-17T09:17:30.824Z,10.10
2018-10-17T09:18:30.753Z,10.10
2018-10-17T09:19:30.881Z,9.80
2018-10-17T09:20:30.820Z,9.80
2018-10-17T09:21:30.663Z,9.10
2018-10-17T09:22:30.521Z,8.80
2018-10-17T09:23:30.358Z,9.90
2018-10-17T09:24:30.281Z,9.40
2018-10-17T09:25:30.262Z,9.50
2018-10-17T09:26:30.104Z,8.80
2018-10-17T09:27:30.022Z,9.70
2018-10-17T09:28:29.933Z,9.10
2018-10-17T09:29:29.848Z,8.90
2018-10-17T09:30:29.899Z,8.90
2018-10-17T09:31:29.680Z,8.80
2018-10-17T09:32:29.594Z,8.80
2018-10-17T09:33:29.518Z,9.00
2018-10-17T09:34:29.429Z,8.60
2018-10-17T09:35:29.444Z,8.80
2018-10-17T09:36:29.260Z,8.90
2018-10-17T09:37:29.178Z,8.90
2018-10-17T09:38:29.090Z,8.70
2018-10-17T09:39:29.007Z,9.00
2018-10-17T09:40:28.948Z,8.60
2018-10-17T09:41:28.838Z,8.40
2018-10-17T09:42:28.755Z,8.70
2018-10-17T09:43:28.668Z,8.50
2018-10-17T09:44:28.582Z,8.10
2018-10-17T09:45:28.526Z,8.00
2018-10-17T09:46:28.408Z,8.70
2018-10-17T09:47:28.326Z,8.80
2018-10-17T09:48:28.241Z,9.00
2018-10-17T09:49:28.162Z,8.40
2018-10-17T09:50:28.104Z,8.40
2018-10-17T09:51:28.001Z,9.10
2018-10-17T09:52:27.909Z,8.30
2018-10-17T09:53:27.900Z,8.60
2018-10-17T09:54:27.738Z,8.20
2018-10-17T09:55:27.684Z,8.40
2018-10-17T09:56:27.577Z,8.40
2018-10-17T09:57:27.495Z,8.10
2018-10-17T09:58:27.418Z,8.50
2018-10-17T09:59:27.341Z,8.40
2018-10-17T10:00:27.288Z,8.50
2018-10-17T10:01:27.183Z,8.20
2018-10-17T10:02:27.135Z,7.90
2018-10-17T10:03:27.035Z,8.20
2018-10-17T10:04:26.955Z,8.10
2018-10-17T10:05:26.903Z,8.20
2018-10-17T10:06:26.799Z,7.90
2018-10-17T10:07:26.716Z,8.10
2018-10-17T10:08:26.634Z,7.90
2018-10-17T10:09:26.551Z,8.10
2018-10-17T10:10:26.497Z,8.20
2018-10-17T10:11:26.389Z,8.30
2018-10-17T10:12:26.305Z,8.30
2018-10-17T10:13:26.221Z,7.80
2018-10-17T10:14:26.138Z,8.10
2018-10-17T10:15:26.085Z,8.10
2018-10-17T10:16:25.975Z,7.60
2018-10-17T10:17:25.905Z,7.60
2018-10-17T10:18:25.810Z,7.70
2018-10-17T10:19:25.727Z,8.00
2018-10-17T10:20:25.684Z,7.70
2018-10-17T10:21:25.566Z,7.70
2018-10-17T10:22:25.484Z,8.00
2018-10-17T10:23:25.409Z,8.00
2018-10-17T10:24:25.321Z,7.90
2018-10-17T10:25:25.402Z,8.00
2018-10-17T10:26:25.156Z,8.10
2018-10-17T10:27:25.072Z,7.90
2018-10-17T10:28:25.091Z,7.80
2018-10-17T10:29:24.908Z,7.90
2018-10-17T10:30:24.951Z,8.00
2018-10-17T10:31:24.750Z,7.70
2018-10-17T10:32:24.665Z,7.70
2018-10-17T10:33:24.574Z,8.00
2018-10-17T10:34:24.490Z,7.30
2018-10-17T10:35:24.402Z,7.60
2018-10-17T10:36:24.353Z,7.90
2018-10-17T10:37:24.239Z,7.20
2018-10-17T10:38:24.159Z,7.30
2018-10-17T10:39:24.073Z,7.80
2018-10-17T10:40:24.016Z,7.40
2018-10-17T10:41:23.943Z,7.40
2018-10-17T10:42:23.831Z,7.60
2018-10-17T10:43:23.747Z,7.40
2018-10-17T10:44:23.668Z,7.30
2018-10-17T10:45:23.605Z,7.30
2018-10-17T10:46:23.532Z,7.10
2018-10-17T10:47:23.430Z,7.60
2018-10-17T10:48:23.340Z,7.90
2018-10-17T10:49:23.255Z,7.10
2018-10-17T10:50:23.172Z,7.10
2018-10-17T10:51:23.275Z,7.40
2018-10-17T10:52:22.993Z,7.40
2018-10-17T10:53:22.903Z,7.50
2018-10-17T10:54:22.808Z,7.30
2018-10-17T10:55:22.725Z,7.30
2018-10-17T10:56:22.678Z,7.30
2018-10-17T10:57:22.561Z,7.30
2018-10-17T10:58:22.666Z,7.30
2018-10-17T10:59:22.613Z,7.30
2018-10-17T11:00:22.298Z,7.40
2018-10-17T11:01:22.232Z,7.00
2018-10-17T11:02:22.120Z,6.90
2018-10-17T11:03:22.035Z,6.90
2018-10-17T11:04:21.946Z,7.20
2018-10-17T11:05:21.907Z,7.40
2018-10-17T11:06:21.795Z,7.30
2018-10-17T11:07:21.675Z,7.30
2018-10-17T11:08:21.597Z,7.00
2018-10-17T11:09:21.500Z,6.80
2018-10-17T11:10:21.412Z,7.10
2018-10-17T11:11:21.350Z,7.00
2018-10-17T11:12:21.237Z,7.40
2018-10-17T11:13:21.155Z,7.00
2018-10-17T11:14:21.298Z,6.90
2018-10-17T11:15:21.047Z,7.30
2018-10-17T11:16:20.913Z,6.60
2018-10-17T11:17:20.794Z,7.10
2018-10-17T11:18:20.703Z,6.80
2018-10-17T11:19:20.621Z,6.70
2018-10-17T11:20:20.537Z,7.10
2018-10-17T11:21:20.483Z,7.10
2018-10-17T11:22:20.369Z,6.80
2018-10-17T11:23:20.420Z,7.40
2018-10-17T11:24:20.200Z,7.10
2018-10-17T11:25:20.114Z,7.10
2018-10-17T11:26:20.054Z,7.10
2018-10-17T11:27:19.942Z,7.30
2018-10-17T11:28:19.858Z,6.90
2018-10-17T11:29:19.850Z,7.20
2018-10-17T11:30:19.686Z,6.70
2018-10-17T11:31:19.640Z,7.50
2018-10-17T11:32:19.509Z,6.80
2018-10-17T11:33:19.549Z,6.50
2018-10-17T11:34:19.322Z,7.10
2018-10-17T11:35:19.315Z,6.90
2018-10-17T11:36:19.167Z,6.60
2018-10-17T11:37:19.095Z,6.90
2018-10-17T11:38:18.959Z,7.00
2018-10-17T11:39:18.869Z,6.80
2018-10-17T11:40:18.785Z,7.20
2018-10-17T11:41:18.870Z,7.10
2018-10-17T11:42:18.604Z,6.70
2018-10-17T11:43:18.513Z,7.10
2018-10-17T11:44:18.416Z,7.60
2018-10-17T11:45:18.446Z,7.20
2018-10-17T11:46:18.259Z,7.30
2018-10-17T11:47:18.146Z,7.50
2018-10-17T11:48:18.060Z,6.80
2018-10-17T11:49:17.973Z,7.40
2018-10-17T11:50:17.888Z,6.70
2018-10-17T11:51:17.906Z,7.10
2018-10-17T11:52:17.710Z,7.10
2018-10-17T11:53:17.681Z,6.90
2018-10-17T11:54:17.540Z,7.10
2018-10-17T11:55:17.451Z,6.80
2018-10-17T11:56:17.388Z,6.90
2018-10-17T11:57:17.314Z,6.60
2018-10-17T11:58:17.195Z,6.90
2018-10-17T11:59:17.176Z,7.50
2018-10-17T12:00:17.030Z,8.10
2018-10-17T12:01:16.971Z,7.80
2018-10-17T12:02:16.861Z,7.80
2018-10-17T12:03:16.878Z,7.40
2018-10-17T12:04:17.199Z,8.40
2018-10-17T12:05:16.897Z,7.60
2018-10-17T12:06:16.683Z,7.90
2018-10-17T12:07:16.436Z,7.20
2018-10-17T12:08:16.365Z,8.10
2018-10-17T12:09:16.326Z,7.60
2018-10-17T12:10:16.174Z,7.50
2018-10-17T12:11:16.147Z,7.50
2018-10-17T12:12:16.015Z,7.40
2018-10-17T12:13:15.926Z,7.40
2018-10-17T12:14:15.843Z,7.20
2018-10-17T12:15:15.798Z,7.70
2018-10-17T12:16:15.713Z,7.60
2018-10-17T12:17:15.601Z,7.70
2018-10-17T12:18:15.625Z,7.40
2018-10-17T12:19:15.498Z,7.30
2018-10-17T12:20:15.352Z,7.90
2018-10-17T12:21:15.360Z,7.30
2018-10-17T12:22:15.179Z,7.50
2018-10-17T12:23:15.092Z,7.40
2018-10-17T12:24:15.120Z,7.50
2018-10-17T12:25:14.934Z,7.60
2018-10-17T12:26:14.847Z,7.50
2018-10-17T12:27:14.899Z,7.60
2018-10-17T12:28:14.801Z,7.70
2018-10-17T12:29:14.581Z,7.60
2018-10-17T12:30:14.607Z,7.30
2018-10-17T12:31:14.406Z,7.50
2018-10-17T12:32:14.340Z,7.10
2018-10-17T12:33:14.297Z,7.20
2018-10-17T12:34:14.142Z,7.30
2018-10-17T12:35:14.100Z,7.30
2018-10-17T12:36:13.983Z,7.30
2018-10-17T12:37:13.912Z,7.30
2018-10-17T12:38:13.803Z,7.20
2018-10-17T12:39:13.764Z,6.90
2018-10-17T12:40:13.777Z,7.60
2018-10-17T12:41:13.665Z,6.90
2018-10-17T12:42:13.479Z,7.10
2018-10-17T12:43:13.370Z,6.80
2018-10-17T12:44:13.358Z,7.30
2018-10-17T12:45:13.281Z,7.20
2018-10-17T12:46:13.122Z,7.30
2018-10-17T12:47:13.160Z,6.90
2018-10-17T12:48:12.941Z,7.30
2018-10-17T12:49:12.949Z,6.90
2018-10-17T12:50:12.848Z,6.80
2018-10-17T12:51:12.683Z,7.00
2018-10-17T12:52:12.713Z,6.50
2018-10-17T12:53:12.580Z,6.90
2018-10-17T12:54:12.433Z,6.90
2018-10-17T12:55:12.362Z,7.00
2018-10-17T12:56:12.281Z,6.60
2018-10-17T12:57:12.208Z,6.80
2018-10-17T12:58:12.093Z,7.20
2018-10-17T12:59:12.091Z,6.90
2018-10-17T13:00:11.915Z,6.70
2018-10-17T13:01:11.951Z,6.50
2018-10-17T13:02:11.881Z,7.10
2018-10-17T13:03:11.653Z,7.10
2018-10-17T13:04:11.601Z,7.00
2018-10-17T13:05:11.505Z,7.10
2018-10-17T13:06:11.378Z,6.80
2018-10-17T13:07:11.451Z,7.10
2018-10-17T13:08:11.214Z,7.00
2018-10-17T13:09:11.116Z,6.70
2018-10-17T13:10:11.026Z,7.20
2018-10-17T13:11:11.063Z,7.20
2018-10-17T13:12:10.873Z,7.10
2018-10-17T13:13:10.951Z,6.80
2018-10-17T13:14:10.678Z,6.90
2018-10-17T13:15:10.678Z,6.90
2018-10-17T13:16:10.519Z,6.60
2018-10-17T13:17:10.579Z,6.50
2018-10-17T13:18:10.345Z,7.10
2018-10-17T13:19:10.352Z,6.80
2018-10-17T13:20:10.168Z,6.60
2018-10-17T13:21:10.081Z,6.80
2018-10-17T13:22:10.029Z,6.80
2018-10-17T13:23:09.930Z,6.70
2018-10-17T13:24:09.830Z,6.60
2018-10-17T13:25:09.823Z,6.70
2018-10-17T13:26:09.674Z,6.60
2018-10-17T13:27:09.630Z,6.70
2018-10-17T13:28:09.509Z,6.30
2018-10-17T13:29:09.528Z,6.30
2018-10-17T13:30:09.420Z,6.50
2018-10-17T13:31:09.255Z,6.90
2018-10-17T13:32:09.269Z,6.70
2018-10-17T13:33:09.081Z,6.40
2018-10-17T13:34:09.083Z,6.70
2018-10-17T13:35:09.076Z,6.50
2018-10-17T13:36:08.836Z,6.50
2018-10-17T13:37:08.864Z,6.50
2018-10-17T13:38:08.672Z,6.30
2018-10-17T13:39:08.592Z,6.60
2018-10-17T13:40:08.590Z,6.20
2018-10-17T13:41:08.505Z,6.60
2018-10-17T13:42:08.503Z,6.20
2018-10-17T13:43:08.317Z,6.00
2018-10-17T13:44:08.192Z,6.30
2018-10-17T13:45:08.098Z,5.90
2018-10-17T13:46:08.019Z,6.10
2018-10-17T13:47:08.052Z,6.10
2018-10-17T13:48:07.896Z,5.80
2018-10-17T13:49:07.887Z,6.00
2018-10-17T13:50:07.682Z,5.90
2018-10-17T13:51:07.599Z,6.20
2018-10-17T13:52:07.538Z,6.50
2018-10-17T13:53:07.512Z,6.00
2018-10-17T13:54:07.343Z,5.70
2018-10-17T13:55:07.333Z,6.70
2018-10-17T13:56:07.201Z,6.30
2018-10-17T13:57:07.117Z,6.20
2018-10-17T13:58:07.073Z,6.00
2018-10-17T13:59:06.987Z,6.10
2018-10-17T14:00:06.900Z,6.10
2018-10-17T14:01:06.869Z,5.80
2018-10-17T14:02:06.698Z,6.00
2018-10-17T14:03:06.585Z,6.10
2018-10-17T14:04:06.572Z,5.90
2018-10-17T14:05:06.423Z,5.80
2018-10-17T14:06:06.358Z,5.90
2018-10-17T14:07:06.332Z,6.20
2018-10-17T14:08:06.166Z,6.00
2018-10-17T14:09:06.152Z,5.70
2018-10-17T14:10:05.997Z,6.40
2018-10-17T14:11:08.372Z,5.90
2018-10-17T14:12:08.479Z,6.40
2018-10-17T14:13:08.494Z,5.70
2018-10-17T14:14:08.488Z,6.30
2018-10-17T14:15:06.633Z,6.00
2018-10-17T14:16:05.849Z,5.70
2018-10-17T14:17:05.612Z,6.30
2018-10-17T14:18:05.741Z,5.70
2018-10-17T14:19:05.731Z,6.10
2018-10-17T14:20:05.189Z,6.50
2018-10-17T14:21:05.145Z,6.40
2018-10-17T14:22:07.758Z,6.50
2018-10-17T14:23:05.595Z,6.00
2018-10-17T14:24:05.878Z,6.10
2018-10-17T14:25:04.869Z,6.40
2018-10-17T14:26:04.720Z,6.70
2018-10-17T14:27:05.992Z,6.40
2018-10-17T14:28:04.645Z,6.40
2018-10-17T14:29:07.020Z,6.50
2018-10-17T14:30:07.054Z,5.70
2018-10-17T14:31:07.060Z,6.20
2018-10-17T14:32:07.074Z,6.00
2018-10-17T14:33:07.169Z,6.20
2018-10-17T14:34:04.060Z,6.50
2018-10-17T14:35:03.981Z,6.40
2018-10-17T14:36:03.992Z,6.30
2018-10-17T14:37:06.204Z,5.80
2018-10-17T14:38:09.238Z,6.70
2018-10-17T14:39:03.658Z,6.30
2018-10-17T14:40:03.588Z,6.50
2018-10-17T14:41:03.565Z,6.10
2018-10-17T14:42:03.400Z,6.80
2018-10-17T14:43:03.717Z,6.70
2018-10-17T14:44:03.203Z,6.70
2018-10-17T14:45:05.365Z,6.90
2018-10-17T14:46:04.949Z,6.50
2018-10-17T14:47:05.291Z,6.60
2018-10-17T14:48:05.419Z,6.40
2018-10-17T14:49:03.396Z,6.60
2018-10-17T14:50:02.807Z,6.50
2018-10-17T14:51:03.169Z,6.70
2018-10-17T14:52:05.514Z,6.30
2018-10-17T14:53:04.649Z,6.50
2018-10-17T14:54:05.554Z,6.80
2018-10-17T14:55:03.225Z,6.60
2018-10-17T14:56:02.232Z,6.70
2018-10-17T14:57:04.639Z,6.40
2018-10-17T14:58:04.704Z,6.20
2018-10-17T14:59:01.973Z,6.60
2018-10-17T15:00:04.680Z,6.70
2018-10-17T15:01:04.731Z,6.40
2018-10-17T15:02:03.750Z,6.50
2018-10-17T15:03:04.884Z,6.60
2018-10-17T15:04:03.790Z,6.30
2018-10-17T15:05:03.836Z,6.60
2018-10-17T15:06:01.695Z,7.10
2018-10-17T15:07:01.225Z,6.70
2018-10-17T15:08:04.766Z,6.90
2018-10-17T15:09:01.127Z,6.60
2018-10-17T15:10:02.039Z,6.90
2018-10-17T15:11:01.056Z,6.20
2018-10-17T15:12:02.710Z,6.50
2018-10-17T15:13:00.700Z,6.20
2018-10-17T15:14:02.892Z,6.50
2018-10-17T15:15:00.534Z,6.60
2018-10-17T15:16:01.140Z,6.40
2018-10-17T15:17:03.096Z,6.30
2018-10-17T15:18:03.065Z,6.00
2018-10-17T15:19:02.980Z,6.70
2018-10-17T15:20:02.998Z,6.70
2018-10-17T15:21:02.057Z,6.60
2018-10-17T15:22:02.033Z,6.50
2018-10-17T15:23:02.094Z,6.50
2018-10-17T15:24:02.116Z,6.30
2018-10-17T15:24:59.638Z,6.60
2018-10-17T15:25:59.528Z,6.50
2018-10-17T15:26:59.525Z,6.70
2018-10-17T15:28:00.352Z,6.90
2018-10-17T15:28:59.338Z,7.00
2018-10-17T15:30:01.285Z,6.50
2018-10-17T15:31:01.323Z,6.90
2018-10-17T15:32:01.361Z,6.80
2018-10-17T15:32:59.002Z,6.70
2018-10-17T15:33:58.918Z,6.60
2018-10-17T15:35:01.378Z,6.60
2018-10-17T15:36:00.432Z,6.90
2018-10-17T15:37:01.601Z,6.30
2018-10-17T15:38:03.390Z,6.30
2018-10-17T15:39:00.548Z,6.50
2018-10-17T15:39:59.567Z,6.50
2018-10-17T15:40:58.293Z,6.30
2018-10-17T15:41:58.304Z,6.70
2018-10-17T15:42:58.176Z,6.40
2018-10-17T15:43:58.048Z,6.10
2018-10-17T15:45:00.632Z,6.10
2018-10-17T15:46:00.635Z,6.20
2018-10-17T15:47:00.658Z,6.30
2018-10-17T15:48:00.744Z,6.30
2018-10-17T15:48:59.688Z,6.50
2018-10-17T15:49:57.560Z,6.80
2018-10-17T15:50:59.714Z,6.60
2018-10-17T15:51:59.722Z,6.30
2018-10-17T15:52:59.794Z,6.20
2018-10-17T15:53:59.869Z,6.30
2018-10-17T15:54:59.799Z,6.40
2018-10-17T15:55:57.079Z,6.90
2018-10-17T15:56:59.836Z,6.60
2018-10-17T15:57:57.538Z,7.00
2018-10-17T15:58:58.941Z,7.00
2018-10-17T15:59:58.975Z,6.80
2018-10-17T16:00:56.708Z,6.80
2018-10-17T16:01:56.594Z,6.90
2018-10-17T16:02:56.487Z,6.80
2018-10-17T16:03:56.416Z,6.60
2018-10-17T16:04:56.311Z,6.70
2018-10-17T16:05:56.227Z,6.90
2018-10-17T16:06:56.146Z,6.90
2018-10-17T16:07:56.102Z,6.60
2018-10-17T16:08:55.993Z,7.00
2018-10-17T16:09:55.885Z,6.30
2018-10-17T16:10:55.807Z,6.50
2018-10-17T16:11:55.793Z,7.00
2018-10-17T16:12:55.645Z,7.00
2018-10-17T16:13:55.599Z,6.60
2018-10-17T16:14:55.475Z,7.10
2018-10-17T16:15:55.390Z,7.00
2018-10-17T16:16:55.348Z,6.80
2018-10-17T16:17:55.245Z,6.90
2018-10-17T16:18:55.168Z,7.10
2018-10-17T16:19:55.070Z,6.70
2018-10-17T16:20:54.973Z,6.50
2018-10-17T16:21:54.890Z,6.90
2018-10-17T16:22:54.950Z,6.80
2018-10-17T16:23:54.804Z,6.60
2018-10-17T16:24:54.653Z,6.80
2018-10-17T16:25:54.630Z,6.40
2018-10-17T16:26:54.489Z,7.10
2018-10-17T16:27:54.404Z,6.70
2018-10-17T16:28:54.345Z,6.70
2018-10-17T16:29:54.267Z,6.70
2018-10-17T16:30:54.211Z,7.10
2018-10-17T16:31:54.076Z,6.80
2018-10-17T16:32:53.990Z,7.10
2018-10-17T16:33:53.937Z,6.50
2018-10-17T16:34:53.837Z,6.70
2018-10-17T16:35:53.827Z,7.20
2018-10-17T16:36:53.680Z,7.00
2018-10-17T16:37:53.649Z,7.20
2018-10-17T16:38:53.534Z,7.60
2018-10-17T16:39:53.424Z,7.20
2018-10-17T16:40:53.398Z,6.90
2018-10-17T16:41:53.310Z,6.90
2018-10-17T16:42:53.185Z,7.30
2018-10-17T16:43:53.129Z,7.70
2018-10-17T16:44:53.019Z,7.50
2018-10-17T16:45:52.939Z,7.60
2018-10-17T16:46:52.853Z,7.40
2018-10-17T16:47:52.815Z,7.70
2018-10-17T16:48:52.711Z,6.80
2018-10-17T16:49:52.753Z,7.60
2018-10-17T16:50:52.539Z,7.50
2018-10-17T16:51:52.413Z,7.70
2018-10-17T16:52:52.330Z,7.30
2018-10-17T16:53:52.849Z,7.40
2018-10-17T16:54:52.148Z,7.70
2018-10-17T16:55:52.066Z,7.90
2018-10-17T16:56:52.013Z,7.70
2018-10-17T16:57:51.906Z,8.00
2018-10-17T16:58:51.840Z,7.90
2018-10-17T16:59:51.725Z,7.60
2018-10-17T17:00:51.639Z,7.70
2018-10-17T17:01:51.548Z,8.20
2018-10-17T17:02:51.461Z,7.60
2018-10-17T17:03:51.389Z,8.20
2018-10-17T17:04:51.273Z,8.10
2018-10-17T17:05:51.211Z,7.60
2018-10-17T17:06:51.085Z,7.90
2018-10-17T17:07:50.994Z,8.40
2018-10-17T17:08:50.923Z,8.50
2018-10-17T17:09:50.807Z,8.00
2018-10-17T17:10:50.717Z,8.10
2018-10-17T17:11:50.619Z,8.50
2018-10-17T17:12:50.524Z,8.10
2018-10-17T17:13:50.456Z,7.30
2018-10-17T17:14:50.336Z,8.30
2018-10-17T17:15:50.240Z,7.70
2018-10-17T17:16:50.144Z,7.50
2018-10-17T17:17:50.057Z,8.10
2018-10-17T17:18:50.059Z,8.00
2018-10-17T17:19:49.880Z,8.50
2018-10-17T17:20:49.791Z,8.40
2018-10-17T17:21:49.707Z,8.40
2018-10-17T17:22:49.735Z,8.40
2018-10-17T17:23:49.549Z,8.30
2018-10-17T17:24:49.431Z,8.10
2018-10-17T17:25:49.341Z,8.00
2018-10-17T17:26:49.250Z,7.80
2018-10-17T17:27:49.167Z,8.10
2018-10-17T17:28:50.876Z,8.60
2018-10-17T17:29:49.068Z,8.20
2018-10-17T17:30:48.911Z,8.10
2018-10-17T17:31:48.820Z,8.20
2018-10-17T17:32:48.722Z,7.90
2018-10-17T17:33:48.648Z,8.30
2018-10-17T17:34:48.557Z,8.30
2018-10-17T17:35:48.436Z,7.80
2018-10-17T17:36:48.347Z,8.20
2018-10-17T17:37:48.257Z,8.60
2018-10-17T17:38:48.165Z,8.50
2018-10-17T17:39:48.101Z,7.50
2018-10-17T17:40:47.984Z,8.00
2018-10-17T17:41:47.888Z,8.40
2018-10-17T17:42:47.795Z,8.30
2018-10-17T17:43:47.689Z,8.10
2018-10-17T17:44:47.617Z,8.00
2018-10-17T17:45:47.490Z,8.50
2018-10-17T17:46:47.457Z,8.00
2018-10-17T17:47:47.289Z,8.00
2018-10-17T17:48:47.195Z,8.20
2018-10-17T17:49:47.129Z,8.50
2018-10-17T17:50:47.011Z,8.20
2018-10-17T17:51:47.038Z,8.30
2018-10-17T17:52:46.836Z,7.90
2018-10-17T17:53:46.749Z,8.00
2018-10-17T17:54:46.689Z,8.20
2018-10-17T17:55:46.628Z,8.30
2018-10-17T17:56:46.465Z,8.00
2018-10-17T17:57:46.415Z,8.10
2018-10-17T17:58:46.499Z,8.50
2018-10-17T17:59:46.220Z,8.60
2018-10-17T18:00:46.104Z,8.30
2018-10-17T18:01:46.016Z,8.40
2018-10-17T18:02:45.926Z,8.30
2018-10-17T18:03:45.839Z,8.60
2018-10-17T18:04:45.773Z,8.60
2018-10-17T18:05:45.653Z,8.30
2018-10-17T18:06:45.586Z,8.20
2018-10-17T18:07:45.473Z,8.60
2018-10-17T18:08:45.385Z,8.80
2018-10-17T18:09:45.317Z,8.80
2018-10-17T18:10:45.197Z,8.50
2018-10-17T18:11:45.105Z,8.30
2018-10-17T18:12:45.010Z,8.00
2018-10-17T18:13:44.921Z,8.50
2018-10-17T18:14:44.852Z,8.60
2018-10-17T18:15:44.733Z,8.70
2018-10-17T18:16:44.640Z,8.90
2018-10-17T18:17:44.554Z,8.60
2018-10-17T18:18:44.462Z,8.50
2018-10-17T18:19:44.391Z,8.20
2018-10-17T18:20:44.274Z,8.50
2018-10-17T18:21:44.200Z,8.60
2018-10-17T18:22:44.093Z,9.00
2018-10-17T18:23:43.998Z,8.90
2018-10-17T18:24:43.947Z,8.30
2018-10-17T18:25:43.824Z,8.30
2018-10-17T18:26:43.733Z,8.40
2018-10-17T18:27:43.672Z,8.70
2018-10-17T18:28:43.555Z,8.80
2018-10-17T18:29:43.499Z,8.50
2018-10-17T18:30:43.388Z,8.90
2018-10-17T18:31:43.303Z,8.80
2018-10-17T18:32:43.214Z,8.40
2018-10-17T18:33:43.133Z,8.30
2018-10-17T18:34:43.062Z,8.60
2018-10-17T18:35:42.945Z,8.70
2018-10-17T18:36:42.857Z,9.10
2018-10-17T18:37:42.775Z,8.50
2018-10-17T18:38:42.694Z,8.90
2018-10-17T18:39:42.635Z,9.00
2018-10-17T18:40:42.592Z,8.80
2018-10-17T18:41:42.435Z,9.30
2018-10-17T18:42:42.347Z,9.40
2018-10-17T18:43:42.258Z,9.50
2018-10-17T18:44:42.190Z,9.10
2018-10-17T18:45:42.145Z,10.20
2018-10-17T18:46:41.985Z,9.70
2018-10-17T18:47:41.950Z,10.10
2018-10-17T18:48:41.828Z,9.90
2018-10-17T18:49:41.758Z,10.40
2018-10-17T18:50:41.646Z,10.50
2018-10-17T18:51:41.558Z,10.80
2018-10-17T18:52:41.476Z,10.90
2018-10-17T18:53:41.383Z,10.60
2018-10-17T18:54:41.325Z,10.40
2018-10-17T18:55:41.265Z,10.90
2018-10-17T18:56:41.118Z,10.20
2018-10-17T18:57:41.032Z,10.20
2018-10-17T18:58:40.938Z,10.30
2018-10-17T18:59:40.871Z,10.10
2018-10-17T19:00:40.757Z,10.40
2018-10-17T19:01:40.768Z,10.10
2018-10-17T19:02:40.572Z,10.50
2018-10-17T19:03:40.494Z,10.40
2018-10-17T19:04:40.419Z,10.50
2018-10-17T19:05:40.299Z,10.40
2018-10-17T19:06:40.212Z,10.10
2018-10-17T19:07:40.128Z,10.60
2018-10-17T19:08:40.037Z,10.60
2018-10-17T19:09:39.993Z,10.40
2018-10-17T19:10:39.866Z,11.30
2018-10-17T19:11:39.783Z,10.60
2018-10-17T19:12:39.705Z,11.10
2018-10-17T19:13:39.625Z,11.20
2018-10-17T19:14:39.533Z,11.20
2018-10-17T19:15:39.474Z,10.80
2018-10-17T19:16:39.405Z,11.60
2018-10-17T19:17:39.268Z,11.00
2018-10-17T19:18:39.183Z,11.20
2018-10-17T19:19:39.092Z,11.80
2018-10-17T19:20:39.055Z,11.60
2018-10-17T19:21:38.924Z,11.50
2018-10-17T19:22:38.856Z,11.30
2018-10-17T19:23:38.756Z,11.00
2018-10-17T19:24:38.712Z,11.60
2018-10-17T19:25:38.602Z,11.80
2018-10-17T19:26:38.490Z,12.20
2018-10-17T19:27:38.410Z,12.20
2018-10-17T19:28:38.328Z,12.80
2018-10-17T19:29:38.245Z,13.20
2018-10-17T19:30:38.182Z,13.70
2018-10-17T19:31:38.077Z,13.40
2018-10-17T19:32:37.999Z,13.90
2018-10-17T19:33:37.919Z,13.90
2018-10-17T19:34:37.840Z,14.10
2018-10-17T19:35:37.781Z,14.00
2018-10-17T19:36:37.668Z,14.40
2018-10-17T19:37:37.578Z,14.50
2018-10-17T19:38:37.492Z,14.90
2018-10-17T19:39:37.406Z,14.00
2018-10-17T19:40:37.347Z,14.70
2018-10-17T19:41:37.235Z,15.20
2018-10-17T19:42:37.147Z,14.60
2018-10-17T19:43:37.062Z,15.40
2018-10-17T19:44:36.978Z,15.90
2018-10-17T19:45:36.917Z,15.30
2018-10-17T19:46:36.805Z,15.90
2018-10-17T19:47:36.749Z,15.60
2018-10-17T19:48:36.646Z,15.20
2018-10-17T19:49:36.566Z,15.70
2018-10-17T19:50:36.513Z,15.10
2018-10-17T19:51:36.402Z,14.70
2018-10-17T19:52:36.328Z,14.70
2018-10-17T19:53:36.239Z,14.80
2018-10-17T19:54:36.156Z,14.40
2018-10-17T19:55:36.103Z,14.40
2018-10-17T19:56:35.992Z,14.60
2018-10-17T19:57:35.909Z,14.60
2018-10-17T19:58:35.822Z,14.40
2018-10-17T19:59:35.741Z,14.40
2018-10-17T20:00:35.687Z,14.30
2018-10-17T20:01:35.575Z,14.80
2018-10-17T20:02:35.493Z,14.50
2018-10-17T20:03:35.419Z,14.50
2018-10-17T20:04:35.343Z,14.20
2018-10-17T20:05:35.283Z,14.70
2018-10-17T20:06:35.173Z,13.70
2018-10-17T20:07:35.112Z,14.60
2018-10-17T20:08:35.005Z,15.20
2018-10-17T20:09:34.919Z,14.50
2018-10-17T20:10:34.854Z,15.20
2018-10-17T20:11:34.747Z,14.90
2018-10-17T20:12:34.661Z,14.70
2018-10-17T20:13:34.580Z,15.50
2018-10-17T20:14:34.497Z,14.90
2018-10-17T20:15:34.437Z,14.10
2018-10-17T20:16:34.322Z,14.90
2018-10-17T20:17:34.236Z,16.10
2018-10-17T20:18:34.149Z,16.20
2018-10-17T20:19:34.073Z,16.20
2018-10-17T20:20:34.132Z,17.20
2018-10-17T20:21:33.901Z,17.50
2018-10-17T20:22:33.817Z,17.20
2018-10-17T20:23:33.736Z,17.10
2018-10-17T20:24:33.668Z,17.50
2018-10-17T20:25:33.594Z,16.80
2018-10-17T20:26:33.468Z,17.60
2018-10-17T20:27:33.381Z,17.60
2018-10-17T20:28:33.297Z,17.50
2018-10-17T20:29:33.210Z,18.40
2018-10-17T20:30:33.152Z,17.70
2018-10-17T20:31:33.049Z,18.60
2018-10-17T20:32:32.965Z,18.10
2018-10-17T20:33:32.884Z,17.80
2018-10-17T20:34:32.801Z,18.60
2018-10-17T20:35:32.748Z,18.10
2018-10-17T20:36:32.639Z,18.10
2018-10-17T20:37:32.553Z,18.30
2018-10-17T20:38:32.477Z,18.30
2018-10-17T20:39:32.386Z,18.90
2018-10-17T20:40:32.328Z,19.10
2018-10-17T20:41:32.212Z,18.10
2018-10-17T20:42:32.133Z,18.30
2018-10-17T20:43:32.047Z,18.80
2018-10-17T20:44:31.965Z,20.10
2018-10-17T20:45:31.908Z,20.00
2018-10-17T20:46:31.802Z,20.00
2018-10-17T20:47:31.714Z,19.00
2018-10-17T20:48:31.627Z,18.70
2018-10-17T20:49:31.545Z,20.10
2018-10-17T20:50:31.458Z,20.10
2018-10-17T20:51:31.395Z,20.30
2018-10-17T20:52:31.473Z,19.90
2018-10-17T20:53:31.197Z,19.70
2018-10-17T20:54:31.114Z,19.30
2018-10-17T20:55:31.024Z,20.10
2018-10-17T20:56:30.965Z,19.60
2018-10-17T20:57:30.850Z,20.30
2018-10-17T20:58:30.765Z,20.00
2018-10-17T20:59:30.673Z,20.10
2018-10-17T21:00:30.591Z,20.10
2018-10-17T21:01:30.532Z,21.10
2018-10-17T21:02:30.422Z,21.50
2018-10-17T21:03:30.330Z,21.50
2018-10-17T21:04:30.249Z,20.20
2018-10-17T21:05:30.158Z,21.30
2018-10-17T21:06:30.094Z,21.00
2018-10-17T21:07:29.986Z,21.30
2018-10-17T21:08:29.901Z,21.00
